Time;durP1;ratioP1;P1;durP2;ratioP2;P2;SDS_P1;SDS_P2;PMS_P1;PMS_P2;Temp;Humidity;BMP_temperature;BMP_pressure;BME280_temperature;BME280_humidity;BME280_pressure;Samples;Min_cycle;Max_cycle;Signal;HPM_P1;HPM_P2
2022/03/27 00:02:14;;;;;;;13.97;6.93;;;4.20;1.00;;;;;;5073497;28;20679;-84
2022/03/27 00:04:41;;;;;;;16.23;7.63;;;4.10;1.00;;;;;;5073489;28;20243;-83
2022/03/27 00:07:09;;;;;;;14.83;7.27;;;4.10;1.00;;;;;;5073414;28;20214;-83
2022/03/27 00:09:36;;;;;;;14.03;7.23;;;4.00;1.00;;;;;;5072920;28;20225;-83
2022/03/27 00:12:05;;;;;;;14.73;7.50;;;4.00;1.00;;;;;;5073113;28;20199;-83
2022/03/27 00:14:32;;;;;;;15.17;7.50;;;3.90;1.00;;;;;;5073102;28;20649;-85
2022/03/27 00:16:59;;;;;;;16.67;7.57;;;3.90;1.00;;;;;;5073355;28;20202;-83
2022/03/27 00:19:26;;;;;;;16.60;8.00;;;3.80;1.00;;;;;;5073312;28;20208;-86
2022/03/27 00:21:54;;;;;;;16.83;8.67;;;3.80;1.00;;;;;;5073065;28;20195;-83
2022/03/27 00:24:22;;;;;;;17.00;8.33;;;3.80;1.00;;;;;;5072908;28;20196;-83
2022/03/27 00:26:50;;;;;;;15.10;7.27;;;3.80;1.00;;;;;;5072962;28;20269;-82
2022/03/27 00:29:18;;;;;;;14.30;8.07;;;3.80;1.00;;;;;;5072896;28;20190;-86
2022/03/27 00:31:45;;;;;;;16.97;7.63;;;3.80;1.00;;;;;;5073197;28;20203;-83
2022/03/27 00:34:12;;;;;;;13.70;7.80;;;3.80;1.00;;;;;;5073215;28;20184;-86
2022/03/27 00:36:40;;;;;;;15.30;7.70;;;3.80;1.00;;;;;;5072983;28;20567;-85
2022/03/27 00:39:07;;;;;;;14.50;7.23;;;3.80;99.90;;;;;;5073065;28;20202;-83
2022/03/27 00:41:35;;;;;;;17.20;6.83;;;3.80;99.90;;;;;;5072837;28;20614;-87
2022/03/27 00:44:03;;;;;;;11.97;6.70;;;3.70;99.90;;;;;;5073169;28;20218;-86
2022/03/27 00:46:30;;;;;;;14.10;7.40;;;3.70;99.90;;;;;;5072905;28;20215;-85
2022/03/27 00:48:57;;;;;;;15.03;6.30;;;3.70;99.90;;;;;;5073023;28;20218;-86
2022/03/27 00:51:24;;;;;;;11.67;6.27;;;3.60;99.90;;;;;;5072209;28;20250;-84
2022/03/27 00:53:51;;;;;;;15.40;6.60;;;3.50;99.90;;;;;;5072924;28;20531;-85
2022/03/27 00:56:18;;;;;;;13.40;6.17;;;3.50;75.50;;;;;;5072986;28;20618;-83
2022/03/27 00:58:47;;;;;;;14.50;6.53;;;3.40;52.30;;;;;;5072528;28;20242;-84
2022/03/27 01:01:17;;;;;;;17.37;6.33;;;3.40;1.00;;;;;;5072684;28;20241;-84
2022/03/27 01:03:47;;;;;;;13.30;6.03;;;3.30;1.00;;;;;;5072617;28;20188;-88
2022/03/27 01:06:25;;;;;;;11.37;5.37;;;3.30;1.00;;;;;;5072703;28;20207;-83
2022/03/27 01:11:37;;;;;;;13.77;6.17;;;3.20;1.00;;;;;;5072412;28;20305;-83
2022/03/27 01:14:06;;;;;;;15.43;5.43;;;3.20;1.00;;;;;;5072736;28;20279;-84
2022/03/27 01:16:39;;;;;;;16.30;6.50;;;3.20;1.00;;;;;;5072974;28;20590;-84
2022/03/27 01:19:06;;;;;;;22.57;6.37;;;3.20;1.00;;;;;;5072709;28;20185;-84
2022/03/27 01:21:38;;;;;;;14.33;6.47;;;3.20;1.00;;;;;;5072165;28;20219;-84
2022/03/27 01:24:06;;;;;;;14.10;6.27;;;3.20;1.00;;;;;;5072778;28;20267;-85
2022/03/27 01:26:33;;;;;;;14.30;6.30;;;3.20;1.00;;;;;;5072286;28;20223;-83
2022/03/27 01:29:00;;;;;;;17.67;7.17;;;3.10;1.00;;;;;;5071980;28;20238;-82
2022/03/27 01:31:27;;;;;;;19.60;7.23;;;3.10;1.00;;;;;;5072055;28;20246;-83
2022/03/27 01:33:55;;;;;;;16.33;6.47;;;3.10;1.00;;;;;;5072466;28;20257;-87
2022/03/27 01:36:23;;;;;;;15.03;6.57;;;3.00;1.00;;;;;;5072676;28;20605;-86
2022/03/27 01:38:53;;;;;;;23.30;9.23;;;3.00;99.90;;;;;;5072569;28;20196;-83
2022/03/27 01:41:20;;;;;;;35.50;11.63;;;3.00;99.90;;;;;;5072395;28;20196;-86
2022/03/27 01:43:47;;;;;;;22.53;8.00;;;2.90;99.90;;;;;;5071834;28;20652;-83
2022/03/27 01:46:14;;;;;;;19.90;8.33;;;2.90;99.90;;;;;;5072325;28;20222;-83
2022/03/27 01:48:41;;;;;;;17.23;7.40;;;2.90;99.90;;;;;;5071906;28;20667;-83
2022/03/27 01:51:09;;;;;;;15.87;7.77;;;2.80;99.90;;;;;;5072045;28;20583;-87
2022/03/27 01:53:37;;;;;;;16.20;7.60;;;2.80;99.90;;;;;;5072007;28;20242;-83
2022/03/27 01:56:07;;;;;;;14.87;7.53;;;2.80;99.90;;;;;;5072319;28;20249;-83
2022/03/27 01:58:37;;;;;;;18.93;7.93;;;2.80;99.90;;;;;;5072111;28;20192;-83
2022/03/27 02:01:05;;;;;;;17.60;7.20;;;2.80;99.90;;;;;;5072136;28;20195;-85
2022/03/27 02:03:32;;;;;;;18.73;8.07;;;2.80;99.90;;;;;;5071906;28;20226;-83
2022/03/27 02:05:59;;;;;;;16.27;7.70;;;2.80;99.90;;;;;;5072083;28;20220;-83
2022/03/27 02:08:26;;;;;;;17.40;8.33;;;2.80;99.90;;;;;;5071828;28;20238;-85
2022/03/27 02:10:53;;;;;;;20.73;9.83;;;2.80;99.90;;;;;;5073681;28;20183;-83
2022/03/27 02:13:22;;;;;;;12.57;7.23;;;2.80;99.90;;;;;;5075602;28;20192;-82
2022/03/27 02:15:49;;;;;;;16.20;7.77;;;2.80;99.90;;;;;;5075776;28;20295;-85
2022/03/27 02:18:17;;;;;;;19.60;7.30;;;2.70;99.90;;;;;;5075820;28;20208;-82
2022/03/27 02:20:45;;;;;;;19.63;8.03;;;2.70;99.90;;;;;;5075227;28;20192;-86
2022/03/27 02:23:13;;;;;;;14.53;7.70;;;2.70;99.90;;;;;;5075560;28;20321;-83
2022/03/27 02:25:40;;;;;;;15.83;8.10;;;2.70;99.90;;;;;;5075154;28;20593;-82
2022/03/27 02:28:08;;;;;;;19.67;9.40;;;2.60;99.90;;;;;;5075461;28;20612;-83
2022/03/27 02:30:36;;;;;;;22.70;8.50;;;2.60;99.90;;;;;;5075422;28;20527;-84
2022/03/27 02:33:03;;;;;;;20.00;10.23;;;2.60;99.90;;;;;;5075236;28;20196;-86
2022/03/27 02:35:30;;;;;;;21.77;9.57;;;2.60;99.90;;;;;;5075092;28;20248;-83
2022/03/27 02:37:58;;;;;;;23.03;10.57;;;2.60;99.90;;;;;;5074922;28;20250;-82
2022/03/27 02:40:25;;;;;;;22.53;9.80;;;2.60;99.90;;;;;;5075310;28;20731;-82
2022/03/27 02:42:52;;;;;;;20.33;9.17;;;2.50;99.90;;;;;;5074976;28;20249;-83
2022/03/27 02:45:19;;;;;;;16.23;7.97;;;2.50;99.90;;;;;;5075275;28;20192;-83
2022/03/27 02:47:47;;;;;;;18.80;8.80;;;2.50;99.90;;;;;;5074935;28;20216;-87
2022/03/27 02:50:14;;;;;;;20.47;9.60;;;2.50;99.90;;;;;;5074986;28;20237;-86
2022/03/27 02:52:41;;;;;;;17.27;9.20;;;2.40;99.90;;;;;;5075279;28;20192;-86
2022/03/27 02:55:10;;;;;;;15.47;8.90;;;2.40;99.90;;;;;;5074645;28;20245;-83
2022/03/27 02:57:37;;;;;;;19.27;8.90;;;2.40;99.90;;;;;;5074731;28;20196;-84
2022/03/27 03:00:06;;;;;;;17.43;9.27;;;2.40;99.90;;;;;;5074855;28;20192;-84
2022/03/27 03:02:34;;;;;;;20.10;8.37;;;2.30;99.90;;;;;;5074970;28;20192;-83
2022/03/27 03:05:03;;;;;;;17.50;9.50;;;2.30;99.90;;;;;;5074492;28;20188;-83
2022/03/27 03:07:30;;;;;;;20.33;9.63;;;2.30;99.90;;;;;;5074889;28;20617;-85
2022/03/27 03:09:57;;;;;;;18.57;9.23;;;2.30;99.90;;;;;;5074619;28;20257;-85
2022/03/27 03:12:26;;;;;;;17.97;9.57;;;2.30;99.90;;;;;;5074987;28;20188;-83
2022/03/27 03:14:55;;;;;;;21.83;9.90;;;2.20;99.90;;;;;;5074570;28;20195;-82
2022/03/27 03:17:22;;;;;;;17.77;10.20;;;2.20;99.90;;;;;;5074759;28;20203;-83
2022/03/27 03:19:49;;;;;;;24.80;11.20;;;2.20;99.90;;;;;;5074271;28;20192;-82
2022/03/27 03:22:18;;;;;;;20.93;10.40;;;2.20;99.90;;;;;;5072943;28;20648;-83
2022/03/27 03:24:46;;;;;;;22.93;9.97;;;2.20;99.90;;;;;;5074335;28;20234;-86
2022/03/27 03:27:13;;;;;;;19.20;9.40;;;2.20;99.90;;;;;;5074311;28;20308;-83
2022/03/27 03:29:41;;;;;;;16.67;8.63;;;2.20;1.00;;;;;;5073835;28;20230;-83
2022/03/27 03:32:08;;;;;;;17.90;8.97;;;2.20;99.90;;;;;;5073897;28;20575;-85
2022/03/27 03:34:36;;;;;;;20.47;9.00;;;2.20;1.00;;;;;;5074156;28;20196;-86
2022/03/27 03:37:04;;;;;;;19.03;9.00;;;2.10;1.00;;;;;;5073953;28;20656;-82
2022/03/27 03:39:32;;;;;;;21.93;10.10;;;2.10;1.00;;;;;;5074083;28;20215;-82
2022/03/27 03:41:59;;;;;;;17.87;8.40;;;2.10;1.00;;;;;;5074292;28;20188;-83
2022/03/27 03:44:27;;;;;;;24.43;10.67;;;2.10;1.00;;;;;;5074419;28;20302;-85
2022/03/27 03:46:54;;;;;;;20.63;9.70;;;2.10;1.00;;;;;;5073783;28;20238;-82
2022/03/27 03:49:22;;;;;;;20.40;10.40;;;2.00;1.00;;;;;;5074096;28;20201;-83
2022/03/27 03:51:49;;;;;;;22.03;11.57;;;2.10;1.00;;;;;;5073783;28;20196;-83
2022/03/27 03:54:16;;;;;;;23.27;10.80;;;2.00;1.00;;;;;;5073552;28;20598;-82
2022/03/27 03:56:45;;;;;;;32.20;15.47;;;2.00;1.00;;;;;;5073790;28;20245;-84
2022/03/27 03:59:12;;;;;;;25.37;11.83;;;2.00;1.00;;;;;;5073791;28;20195;-83
2022/03/27 04:01:39;;;;;;;21.97;8.80;;;2.00;1.00;;;;;;5073250;28;20242;-82
2022/03/27 04:04:06;;;;;;;19.03;9.13;;;2.00;1.00;;;;;;5073551;28;20195;-83
2022/03/27 04:06:34;;;;;;;19.20;8.77;;;2.00;1.00;;;;;;5073577;28;20178;-83
2022/03/27 04:09:01;;;;;;;14.23;8.30;;;2.00;1.00;;;;;;5073502;28;20306;-83
2022/03/27 04:11:28;;;;;;;17.63;8.60;;;2.00;1.00;;;;;;5073808;28;20259;-85
2022/03/27 04:13:57;;;;;;;19.67;9.40;;;2.00;1.00;;;;;;5073422;28;20253;-82
2022/03/27 04:16:24;;;;;;;21.70;11.30;;;2.00;1.00;;;;;;5073012;28;20203;-83
2022/03/27 04:18:51;;;;;;;20.83;10.07;;;2.00;1.00;;;;;;5072889;28;20406;-82
2022/03/27 04:21:18;;;;;;;18.73;9.50;;;2.00;1.00;;;;;;5073124;28;20601;-85
2022/03/27 04:23:45;;;;;;;21.07;9.50;;;1.90;1.00;;;;;;5072935;28;20196;-84
2022/03/27 04:26:13;;;;;;;16.97;9.00;;;1.90;1.00;;;;;;5073204;28;20274;-82
2022/03/27 04:28:40;;;;;;;21.47;9.13;;;1.90;1.00;;;;;;5072917;28;20212;-82
2022/03/27 04:31:08;;;;;;;20.33;8.90;;;2.00;1.00;;;;;;5072859;28;20653;-85
2022/03/27 04:33:35;;;;;;;17.10;8.80;;;2.00;1.00;;;;;;5072416;28;20191;-84
2022/03/27 04:36:05;;;;;;;19.27;8.90;;;2.00;1.00;;;;;;5073168;28;20587;-87
2022/03/27 04:38:32;;;;;;;19.07;8.73;;;2.00;1.00;;;;;;5073006;28;20202;-83
2022/03/27 04:40:59;;;;;;;19.47;9.33;;;2.00;1.00;;;;;;5072399;28;20264;-83
2022/03/27 04:43:27;;;;;;;16.63;8.00;;;2.00;1.00;;;;;;5072895;28;20200;-82
2022/03/27 04:45:54;;;;;;;17.30;8.90;;;2.00;1.00;;;;;;5073139;28;20196;-84
2022/03/27 04:48:22;;;;;;;22.40;11.23;;;2.00;1.00;;;;;;5072891;28;20262;-83
2022/03/27 04:50:50;;;;;;;68.67;29.13;;;2.00;1.00;;;;;;5074518;28;20243;-83
2022/03/27 04:53:17;;;;;;;29.77;12.90;;;2.00;1.00;;;;;;5074236;28;20195;-81
2022/03/27 04:55:44;;;;;;;22.73;10.73;;;2.00;1.00;;;;;;5072479;28;20245;-83
2022/03/27 04:58:17;;;;;;;16.00;9.50;;;2.10;1.00;;;;;;5078357;28;20192;-85
2022/03/27 05:00:45;;;;;;;17.50;8.27;;;2.20;1.00;;;;;;5079282;28;20160;-83
2022/03/27 05:03:12;;;;;;;20.03;8.20;;;2.20;1.00;;;;;;5075148;28;20192;-87
2022/03/27 05:05:41;;;;;;;16.23;8.43;;;2.30;1.00;;;;;;5078366;28;20286;-82
2022/03/27 05:08:08;;;;;;;13.93;8.17;;;2.30;1.00;;;;;;5074702;28;20637;-83
2022/03/27 05:10:38;;;;;;;15.17;7.70;;;2.40;1.00;;;;;;5076193;28;20223;-86
2022/03/27 05:13:07;;;;;;;16.47;7.83;;;2.50;1.00;;;;;;5080128;28;20689;-87
2022/03/27 05:15:35;;;;;;;18.33;8.63;;;2.60;1.00;;;;;;5081503;28;20246;-83
2022/03/27 05:18:05;;;;;;;18.37;11.30;;;2.70;1.00;;;;;;5075910;28;20199;-85
2022/03/27 05:20:32;;;;;;;22.33;11.97;;;2.80;1.00;;;;;;5076331;28;20192;-82
2022/03/27 05:23:01;;;;;;;16.23;10.20;;;2.80;1.00;;;;;;5075846;28;20249;-82
2022/03/27 05:25:28;;;;;;;16.93;9.10;;;2.90;1.00;;;;;;5079573;28;20230;-82
2022/03/27 05:27:57;;;;;;;17.10;9.47;;;3.10;1.00;;;;;;5073822;28;20216;-84
2022/03/27 05:30:25;;;;;;;19.43;10.17;;;3.20;1.00;;;;;;5071717;28;20185;-87
2022/03/27 05:32:54;;;;;;;21.00;11.13;;;3.30;99.90;;;;;;5073247;28;20191;-83
2022/03/27 05:35:22;;;;;;;29.73;17.27;;;3.50;99.90;;;;;;5072337;28;20199;-82
2022/03/27 05:37:59;;;;;;;56.67;28.43;;;3.70;1.00;;;;;;5073715;28;20757;-82
2022/03/27 05:40:28;;;;;;;46.93;24.40;;;4.10;1.00;;;;;;5075926;28;20664;-83
2022/03/27 05:42:55;;;;;;;30.33;16.97;;;4.90;99.90;;;;;;5075336;28;20716;-81
2022/03/27 05:45:27;;;;;;;34.70;16.33;;;5.80;72.10;;;;;;5080884;28;20201;-85
2022/03/27 05:47:55;;;;;;;20.67;11.80;;;6.80;93.60;;;;;;5082507;28;20204;-80
2022/03/27 05:50:23;;;;;;;13.97;8.17;;;7.80;1.00;;;;;;5081420;28;20196;-82
2022/03/27 05:52:51;;;;;;;18.10;10.30;;;8.60;99.90;;;;;;5082085;28;20209;-82
2022/03/27 05:55:19;;;;;;;19.77;10.57;;;9.30;99.90;;;;;;5078745;28;20605;-83
2022/03/27 05:57:47;;;;;;;16.00;10.50;;;9.90;1.00;;;;;;5077766;28;20197;-82
2022/03/27 06:00:20;;;;;;;19.33;10.80;;;10.60;1.00;;;;;;5080213;28;20198;-83
2022/03/27 06:02:48;;;;;;;17.37;9.57;;;11.30;1.00;;;;;;5079278;28;20181;-82
2022/03/27 06:05:17;;;;;;;16.17;10.60;;;11.80;99.90;;;;;;5080800;28;20189;-81
2022/03/27 06:07:48;;;;;;;15.17;9.83;;;12.30;99.90;;;;;;5075433;28;20287;-82
2022/03/27 06:10:17;;;;;;;19.63;10.17;;;12.80;92.30;;;;;;5079753;28;20230;-83
2022/03/27 06:12:48;;;;;;;14.37;9.87;;;13.10;93.40;;;;;;5080867;28;20260;-84
2022/03/27 06:15:16;;;;;;;14.77;8.57;;;13.60;1.00;;;;;;5078172;28;20239;-83
2022/03/27 06:17:44;;;;;;;18.45;8.13;;;14.10;1.00;;;;;;5078657;28;20618;-81
2022/03/27 06:20:13;;;;;;;15.20;9.43;;;14.80;1.00;;;;;;5074982;28;20198;-81
2022/03/27 06:22:41;;;;;;;15.05;9.38;;;15.40;1.00;;;;;;5075941;28;20227;-82
2022/03/27 06:25:09;;;;;;;17.80;12.32;;;15.80;1.00;;;;;;5077469;28;20226;-81
2022/03/27 06:27:36;;;;;;;12.32;8.45;;;16.30;1.00;;;;;;5075988;28;20212;-83
2022/03/27 06:30:07;;;;;;;17.98;11.93;;;16.70;1.00;;;;;;5075966;28;20188;-83
2022/03/27 06:32:34;;;;;;;17.38;11.07;;;17.10;1.00;;;;;;5076221;28;20208;-80
2022/03/27 06:35:01;;;;;;;15.02;10.23;;;17.50;1.00;;;;;;5075058;28;20203;-82
2022/03/27 06:37:29;;;;;;;13.10;7.57;;;18.00;1.00;;;;;;5074849;28;20200;-81
2022/03/27 06:39:56;;;;;;;11.77;8.02;;;18.40;1.00;;;;;;5075965;28;20242;-81
2022/03/27 06:42:24;;;;;;;11.35;8.20;;;18.70;1.00;;;;;;5076373;28;20204;-82
2022/03/27 06:44:52;;;;;;;11.10;6.72;;;18.90;1.00;;;;;;5079725;28;20201;-80
2022/03/27 06:47:21;;;;;;;12.82;8.05;;;19.00;1.00;;;;;;5076651;28;20191;-82
2022/03/27 06:49:49;;;;;;;13.30;7.63;;;19.30;1.00;;;;;;5075385;28;20645;-83
2022/03/27 06:52:17;;;;;;;10.35;7.07;;;19.70;1.00;;;;;;5074950;28;20257;-81
2022/03/27 06:54:45;;;;;;;10.13;6.80;;;20.10;1.00;;;;;;5062975;28;20220;-81
2022/03/27 06:57:13;;;;;;;12.82;8.00;;;20.40;1.00;;;;;;5055306;28;20252;-85
2022/03/27 07:05:14;;;;;;;11.85;6.55;;;20.30;1.00;;;;;;5054786;28;20641;-83
2022/03/27 07:07:43;;;;;;;10.75;6.80;;;20.50;1.00;;;;;;5055511;28;20227;-81
2022/03/27 07:10:10;;;;;;;13.15;9.40;;;20.30;1.00;;;;;;5069661;28;20311;-81
2022/03/27 07:12:38;;;;;;;16.52;13.68;;;20.10;1.00;;;;;;5060641;28;20275;-81
2022/03/27 07:15:06;;;;;;;19.38;14.88;;;20.10;1.00;;;;;;5054829;28;20661;-81
2022/03/27 07:17:43;;;;;;;14.73;10.02;;;20.10;1.00;;;;;;5053620;28;20584;-79
2022/03/27 07:20:17;;;;;;;14.18;8.80;;;20.00;1.00;;;;;;5055584;28;20275;-82
2022/03/27 07:22:47;;;;;;;11.32;8.02;;;20.00;1.00;;;;;;5054900;28;20531;-84
2022/03/27 07:25:15;;;;;;;16.65;8.75;;;19.70;1.00;;;;;;5056006;28;20201;-85
2022/03/27 07:27:52;;;;;;;12.15;7.97;;;19.50;1.00;;;;;;5063221;28;20680;-85
2022/03/27 07:30:27;;;;;;;13.13;7.60;;;19.40;1.00;;;;;;5076463;28;20176;-85
2022/03/27 07:32:55;;;;;;;16.45;13.32;;;19.50;1.00;;;;;;5074889;28;20226;-83
2022/03/27 07:35:24;;;;;;;60.47;50.85;;;19.40;1.00;;;;;;5075529;28;20250;-83
2022/03/27 07:37:52;;;;;;;22.90;18.63;;;19.50;1.00;;;;;;5078148;28;20303;-85
2022/03/27 07:40:20;;;;;;;14.15;8.43;;;19.50;1.00;;;;;;5074352;28;20287;-83
2022/03/27 07:42:50;;;;;;;12.13;7.90;;;19.30;1.00;;;;;;5074300;28;20202;-87
2022/03/27 07:45:19;;;;;;;14.18;8.68;;;19.10;1.00;;;;;;5074429;28;20200;-82
2022/03/27 07:47:47;;;;;;;14.05;8.52;;;19.10;1.00;;;;;;5075193;28;20212;-81
2022/03/27 07:50:16;;;;;;;15.25;9.18;;;19.20;1.00;;;;;;5074773;28;20203;-84
2022/03/27 07:52:45;;;;;;;18.08;12.98;;;19.20;1.00;;;;;;5074497;28;20238;-81
2022/03/27 07:55:15;;;;;;;13.95;9.40;;;19.20;1.00;;;;;;5063115;28;20261;-83
2022/03/27 07:57:43;;;;;;;19.52;10.35;;;19.00;1.00;;;;;;5073815;28;20265;-82
2022/03/27 08:00:11;;;;;;;25.48;15.57;;;18.80;1.00;;;;;;5073324;28;20285;-79
2022/03/27 08:02:41;;;;;;;22.33;13.63;;;18.70;1.00;;;;;;5072677;28;20597;-85
2022/03/27 08:05:14;;;;;;;13.85;8.38;;;18.60;1.00;;;;;;5063668;28;20199;-82
2022/03/27 08:07:45;;;;;;;17.33;10.77;;;18.40;1.00;;;;;;5056542;28;20196;-82
2022/03/27 08:10:14;;;;;;;14.77;9.18;;;18.10;1.00;;;;;;5053812;28;20221;-82
2022/03/27 08:12:41;;;;;;;33.75;19.50;;;17.90;1.00;;;;;;5052891;28;20201;-84
2022/03/27 08:15:08;;;;;;;15.70;9.70;;;17.60;1.00;;;;;;5054290;28;20266;-82
2022/03/27 08:17:36;;;;;;;36.58;21.80;;;17.70;1.00;;;;;;5053330;28;20589;-83
2022/03/27 08:20:04;;;;;;;15.93;9.43;;;18.00;1.00;;;;;;5055284;28;20230;-82
2022/03/27 08:22:31;;;;;;;20.45;11.77;;;18.40;1.00;;;;;;5055033;28;20270;-83
2022/03/27 08:25:04;;;;;;;14.18;9.60;;;18.80;1.00;;;;;;5053232;28;20227;-81
2022/03/27 08:27:31;;;;;;;15.23;10.48;;;19.00;1.00;;;;;;5057810;28;20196;-82
2022/03/27 08:29:58;;;;;;;18.02;10.23;;;19.10;1.00;;;;;;5057255;28;20201;-82
2022/03/27 08:32:25;;;;;;;17.42;11.65;;;19.20;1.00;;;;;;5052721;28;20200;-82
2022/03/27 08:34:52;;;;;;;14.85;9.40;;;19.40;1.00;;;;;;5054146;28;20236;-83
2022/03/27 08:37:19;;;;;;;19.95;13.23;;;19.90;1.00;;;;;;5068835;28;20246;-82
2022/03/27 08:39:47;;;;;;;13.07;9.43;;;20.30;1.00;;;;;;5070806;28;20199;-83
2022/03/27 08:42:19;;;;;;;18.55;11.85;;;20.70;1.00;;;;;;5052564;28;20193;-84
2022/03/27 08:44:47;;;;;;;17.92;10.80;;;21.40;1.00;;;;;;5053994;28;20201;-83
2022/03/27 08:47:21;;;;;;;14.23;10.10;;;21.80;1.00;;;;;;5068610;28;20645;-86
2022/03/27 08:49:54;;;;;;;14.85;10.15;;;22.20;1.00;;;;;;5074015;28;20204;-85
2022/03/27 08:52:41;;;;;;;20.10;14.68;;;22.40;1.00;;;;;;5071598;28;20730;-83
2022/03/27 08:55:19;;;;;;;14.63;10.10;;;22.60;1.00;;;;;;5073165;28;20203;-83
2022/03/27 08:57:58;;;;;;;19.90;13.07;;;22.80;1.00;;;;;;5066805;28;20196;-84
2022/03/27 09:00:27;;;;;;;14.55;9.75;;;22.70;1.00;;;;;;5070395;28;20673;-82
2022/03/27 09:02:55;;;;;;;13.00;9.18;;;22.70;1.00;;;;;;5052317;28;20189;-82
2022/03/27 09:05:22;;;;;;;14.13;9.60;;;22.80;1.00;;;;;;5065685;28;20542;-82
2022/03/27 09:07:50;;;;;;;15.13;9.25;;;22.90;1.00;;;;;;5071430;28;20552;-83
2022/03/27 09:10:18;;;;;;;13.88;9.43;;;23.00;1.00;;;;;;5052304;28;20286;-82
2022/03/27 09:12:46;;;;;;;14.50;9.55;;;22.70;1.00;;;;;;5069003;28;20203;-83
2022/03/27 09:15:17;;;;;;;14.05;9.05;;;22.40;1.00;;;;;;5063576;28;20202;-85
2022/03/27 09:18:01;;;;;;;12.30;8.52;;;22.20;1.00;;;;;;5073216;28;20207;-85
2022/03/27 09:20:36;;;;;;;12.32;8.68;;;22.00;1.00;;;;;;5072898;28;20200;-82
2022/03/27 09:23:19;;;;;;;11.85;8.55;;;21.80;1.00;;;;;;5074873;28;20188;-84
2022/03/27 09:25:48;;;;;;;14.20;9.88;;;21.80;1.00;;;;;;5075184;28;20636;-81
2022/03/27 09:28:24;;;;;;;14.00;8.75;;;21.70;1.00;;;;;;5072421;28;20258;-83
2022/03/27 09:30:53;;;;;;;13.23;8.45;;;21.70;1.00;;;;;;5076814;28;20183;-85
2022/03/27 09:33:34;;;;;;;13.27;8.52;;;21.60;1.00;;;;;;5073636;28;20192;-85
2022/03/27 09:36:06;;;;;;;16.08;9.45;;;21.60;1.00;;;;;;5075193;28;20181;-85
2022/03/27 09:38:34;;;;;;;13.63;9.02;;;21.70;1.00;;;;;;5074191;28;20203;-91
2022/03/27 09:41:01;;;;;;;12.07;8.20;;;21.80;1.00;;;;;;5066040;28;20226;-84
2022/03/27 09:43:28;;;;;;;20.20;14.75;;;21.90;1.00;;;;;;5073090;28;20207;-83
2022/03/27 09:45:59;;;;;;;21.45;16.40;;;21.90;1.00;;;;;;5060044;28;20188;-84
2022/03/27 09:48:26;;;;;;;14.20;10.18;;;21.80;1.00;;;;;;5055851;28;20209;-84
2022/03/27 09:50:55;;;;;;;15.10;8.43;;;21.60;1.00;;;;;;5064202;28;20649;-84
2022/03/27 09:53:25;;;;;;;14.23;8.93;;;21.40;1.00;;;;;;5056818;28;20192;-83
2022/03/27 09:55:55;;;;;;;11.65;8.30;;;20.90;1.00;;;;;;5065210;28;20265;-83
2022/03/27 09:58:35;;;;;;;12.05;8.02;;;20.40;1.00;;;;;;5073127;28;20204;-86
2022/03/27 10:01:12;;;;;;;13.35;7.80;;;20.00;1.00;;;;;;5071476;28;20283;-83
2022/03/27 10:03:58;;;;;;;15.23;7.68;;;19.60;1.00;;;;;;5068134;28;20189;-83
2022/03/27 10:06:30;;;;;;;14.02;8.00;;;19.20;1.00;;;;;;5070161;28;20271;-84
2022/03/27 10:08:59;;;;;;;11.60;5.97;;;18.90;1.00;;;;;;5062016;28;20222;-86
2022/03/27 10:11:32;;;;;;;11.20;6.57;;;18.70;1.00;;;;;;5068150;28;20195;-85
2022/03/27 10:13:59;;;;;;;10.75;6.18;;;18.50;1.00;;;;;;5064663;28;20657;-82
2022/03/27 10:16:29;;;;;;;10.70;6.65;;;18.20;1.00;;;;;;5070357;28;20549;-84
2022/03/27 10:19:00;;;;;;;10.43;5.65;;;18.00;1.00;;;;;;5072526;28;20190;-83
2022/03/27 10:21:27;;;;;;;9.13;6.50;;;17.70;1.00;;;;;;5073814;28;20199;-85
2022/03/27 10:24:05;;;;;;;10.02;6.15;;;17.60;1.00;;;;;;5060163;28;20290;-83
2022/03/27 10:26:34;;;;;;;10.65;6.25;;;17.60;1.00;;;;;;5068165;28;20555;-84
2022/03/27 10:29:02;;;;;;;8.73;5.40;;;17.50;1.00;;;;;;5068536;28;20821;-84
2022/03/27 10:31:31;;;;;;;8.55;5.30;;;17.40;1.00;;;;;;5060218;28;20229;-83
2022/03/27 10:34:00;;;;;;;9.60;5.47;;;17.20;1.00;;;;;;5072305;28;20185;-84
2022/03/27 10:36:43;;;;;;;7.55;5.13;;;17.10;1.00;;;;;;5070761;28;20712;-83
2022/03/27 10:39:17;;;;;;;13.73;7.82;;;17.00;1.00;;;;;;5074090;28;20275;-84
2022/03/27 10:41:52;;;;;;;11.10;4.57;;;17.00;1.00;;;;;;5072376;28;20189;-81
2022/03/27 10:44:32;;;;;;;9.77;5.13;;;16.90;1.00;;;;;;5073152;28;20193;-82
2022/03/27 10:47:17;;;;;;;9.27;5.10;;;16.90;1.00;;;;;;5071083;28;20651;-83
2022/03/27 10:50:23;;;;;;;10.23;5.90;;;16.80;1.00;;;;;;5068232;28;20704;-82
2022/03/27 10:53:10;;;;;;;9.35;6.05;;;16.80;1.00;;;;;;5073027;28;20227;-85
2022/03/27 10:55:44;;;;;;;10.47;6.33;;;16.80;1.00;;;;;;5073578;28;20240;-85
2022/03/27 10:58:32;;;;;;;11.53;6.93;;;16.80;1.00;;;;;;5070420;28;20269;-86
2022/03/27 11:01:01;;;;;;;12.27;6.90;;;16.80;1.00;;;;;;5070522;28;20274;-82
2022/03/27 11:03:47;;;;;;;10.70;7.65;;;16.70;1.00;;;;;;5060294;28;20240;-83
2022/03/27 11:06:25;;;;;;;8.23;6.10;;;16.70;1.00;;;;;;5059875;28;20192;-83
2022/03/27 11:08:54;;;;;;;10.90;6.20;;;16.70;1.00;;;;;;5071070;28;20211;-83
2022/03/27 11:12:01;;;;;;;9.65;6.05;;;16.70;1.00;;;;;;5073795;28;20274;-84
2022/03/27 11:15:02;;;;;;;17.93;13.30;;;16.70;1.00;;;;;;5070241;28;20201;-82
2022/03/27 11:17:45;;;;;;;7.40;4.80;;;16.70;1.00;;;;;;5069723;28;20239;-83
2022/03/27 11:20:55;;;;;;;18.08;12.65;;;16.70;1.00;;;;;;5072659;28;20548;-85
2022/03/27 11:23:32;;;;;;;9.05;5.40;;;16.80;1.00;;;;;;5055216;28;20217;-83
2022/03/27 11:26:02;;;;;;;11.43;6.10;;;16.90;1.00;;;;;;5055207;28;20190;-82
2022/03/27 11:28:45;;;;;;;8.07;5.37;;;17.00;1.00;;;;;;5066506;28;20636;-84
2022/03/27 11:31:25;;;;;;;8.88;5.13;;;17.10;1.00;;;;;;5076273;28;20644;-83
2022/03/27 11:34:28;;;;;;;10.00;5.63;;;17.10;1.00;;;;;;5074511;28;20179;-80
2022/03/27 11:37:22;;;;;;;8.93;5.13;;;17.00;1.00;;;;;;5074452;28;20192;-81
2022/03/27 11:39:51;;;;;;;10.40;5.10;;;17.00;1.00;;;;;;5059775;28;20289;-84
2022/03/27 11:42:30;;;;;;;8.02;4.60;;;17.00;1.00;;;;;;5053675;28;20285;-90
2022/03/27 11:45:16;;;;;;;10.95;5.20;;;17.00;1.00;;;;;;5054380;28;20184;-83
2022/03/27 11:47:46;;;;;;;9.73;5.65;;;17.00;1.00;;;;;;5053391;28;20202;-83
2022/03/27 11:50:28;;;;;;;8.15;4.78;;;17.10;1.00;;;;;;5061689;28;20211;-83
2022/03/27 11:52:55;;;;;;;7.93;4.82;;;17.20;1.00;;;;;;5072554;28;20186;-82
2022/03/27 11:55:27;;;;;;;7.15;4.47;;;17.10;1.00;;;;;;5073231;28;20654;-83
2022/03/27 11:57:57;;;;;;;6.65;4.40;;;17.10;1.00;;;;;;5074167;28;20191;-87
2022/03/27 12:00:32;;;;;;;9.50;5.45;;;17.10;1.00;;;;;;5073248;28;20558;-84
2022/03/27 12:03:00;;;;;;;7.20;4.22;;;17.10;1.00;;;;;;5073733;28;20247;-84
2022/03/27 12:05:34;;;;;;;11.75;5.80;;;17.20;1.00;;;;;;5073179;28;20201;-84
2022/03/27 12:08:02;;;;;;;9.18;5.15;;;17.30;1.00;;;;;;5073663;28;20280;-84
2022/03/27 12:10:39;;;;;;;9.88;4.50;;;17.30;1.00;;;;;;5073328;28;20687;-83
2022/03/27 12:13:08;;;;;;;6.15;3.30;;;17.40;1.00;;;;;;5073739;28;20517;-83
2022/03/27 12:15:46;;;;;;;5.80;3.53;;;17.40;1.00;;;;;;5073081;28;20204;-83
2022/03/27 12:18:16;;;;;;;6.63;4.35;;;17.50;1.00;;;;;;5073751;28;20193;-89
2022/03/27 12:21:03;;;;;;;5.65;3.65;;;17.50;1.00;;;;;;5073691;28;20185;-86
2022/03/27 12:23:32;;;;;;;4.45;2.90;;;17.50;1.00;;;;;;5073004;28;20249;-83
2022/03/27 12:29:40;;;;;;;6.25;3.25;;;17.60;1.00;;;;;;5073140;28;20599;-83
2022/03/27 12:32:11;;;;;;;7.57;2.80;;;17.60;1.00;;;;;;5071904;28;20198;-83
2022/03/27 12:34:53;;;;;;;5.88;3.10;;;17.60;1.00;;;;;;5072995;28;20175;-83
2022/03/27 12:37:21;;;;;;;5.60;3.30;;;17.60;1.00;;;;;;5073110;28;20192;-83
2022/03/27 12:40:14;;;;;;;7.15;3.42;;;17.60;1.00;;;;;;5072670;28;20198;-84
2022/03/27 12:43:10;;;;;;;5.38;3.38;;;17.60;1.00;;;;;;5072845;28;20183;-86
2022/03/27 12:45:40;;;;;;;6.63;3.58;;;17.70;1.00;;;;;;5072749;28;20199;-83
2022/03/27 12:48:16;;;;;;;4.15;2.58;;;17.70;1.00;;;;;;5072476;28;20204;-88
2022/03/27 12:50:46;;;;;;;4.85;3.00;;;17.70;1.00;;;;;;5072728;28;20675;-82
2022/03/27 12:53:24;;;;;;;5.90;3.80;;;17.70;1.00;;;;;;5072281;28;20685;-82
2022/03/27 12:55:54;;;;;;;5.20;3.40;;;17.70;1.00;;;;;;5072169;28;20625;-83
2022/03/27 12:58:37;;;;;;;5.95;3.10;;;17.70;1.00;;;;;;5072940;28;20184;-88
2022/03/27 13:01:06;;;;;;;7.80;3.00;;;17.70;1.00;;;;;;5072548;28;20192;-85
2022/03/27 13:06:37;;;;;;;4.60;2.63;;;17.70;1.00;;;;;;5071613;28;20202;-85
2022/03/27 13:09:08;;;;;;;4.10;2.50;;;17.70;1.00;;;;;;5071981;28;20280;-88
2022/03/27 13:11:40;;;;;;;4.63;2.95;;;17.70;1.00;;;;;;5072074;28;20195;-83
2022/03/27 13:14:09;;;;;;;4.75;3.20;;;17.80;1.00;;;;;;5072579;28;20271;-84
2022/03/27 13:16:43;;;;;;;4.80;3.38;;;17.70;1.00;;;;;;5072156;28;20652;-85
2022/03/27 13:19:12;;;;;;;8.35;3.10;;;17.60;1.00;;;;;;5072505;28;20230;-84
2022/03/27 13:21:40;;;;;;;5.85;3.33;;;17.50;1.00;;;;;;5072163;28;20195;-82